Observations for LONDON GATWICK ARPT, United Kingdom (EGKK)

EGKK 242020Z 22011KT 6000 BKN005 12/11 Q1009
EGKK 241950Z 22011KT 8000 BKN007 12/11 Q1010
EGKK 241920Z 22011KT 9999 BKN006 12/11 Q1010
EGKK 241850Z 22012KT 8000 BKN005 12/11 Q1010
EGKK 241820Z 22011KT 5000 BR BKN006 12/11 Q1010 
EGKK 241750Z 22011KT 5000 BR BKN006 12/11 Q1011 
EGKK 241720Z 22012KT 6000 -DZ BKN007 12/11 Q1011
EGKK 241650Z 22012KT 7000 BKN008 12/11 Q1012
EGKK 241620Z 22012KT 6000 -DZ BKN006 12/11 Q1012
EGKK 241550Z 22010KT 4300 -DZ BKN006 12/11 Q1012
EGKK 241520Z 21011KT 5000 -RA BKN006 12/11 Q1013 REDZ   
EGKK 241450Z 21010KT 180V240 4000 DZ BKN007 13/11 Q1013 
EGKK 241420Z 21011KT 180V240 9999 BKN010 14/11 Q1013
EGKK 241350Z 20011KT 170V240 9999 FEW046 15/09 Q1014
EGKK 241320Z 21010KT 170V240 9999 FEW025 16/08 Q1014
EGKK 241250Z 20010KT 170V240 9999 FEW024 16/09 Q1014
EGKK 241220Z 22009KT 180V260 9999 FEW020 16/10 Q1015
EGKK 241150Z 21010KT 170V230 9999 SCT020 16/11 Q1015
EGKK 241120Z 20008KT 160V240 9999 FEW026 16/10 Q1015
EGKK 241050Z 19007KT 9999 FEW027 15/09 Q1016
EGKK 241020Z 24006KT 210V270 9999 FEW022 15/10 Q1016
EGKK 240950Z 25006KT 210V280 9999 FEW021 14/10 Q1016
EGKK 240920Z 23007KT 9999 FEW020 14/10 Q1016
EGKK 240850Z 23008KT 190V270 9999 SCT019 14/10 Q1016
EGKK 240820Z 25006KT 210V280 9999 SCT015 13/10 Q1016
EGKK 240750Z 23006KT 9999 BKN013 12/10 Q1016
EGKK 240720Z 23007KT 9999 BKN012 12/10 Q1016
EGKK 240650Z 22006KT 9999 SCT014 12/10 Q1016
EGKK 240620Z 21006KT 190V260 9999 FEW018 11/09 Q1015
EGKK 240550Z 22006KT 9999 FEW017 SCT019 11/09 Q1015 
EGKK 240520Z 22006KT 9999 FEW018 BKN022 11/09 Q1015 
EGKK 240450Z 23005KT 190V250 9999 BKN018 11/09 Q1015
EGKK 240420Z 23006KT 9999 SCT016 BKN020 11/09 Q1015 
EGKK 240350Z 23007KT 9999 BKN016 11/09 Q1015
EGKK 240320Z 23007KT 9999 BKN016 11/09 Q1016
EGKK 240250Z 24008KT 9999 BKN017 11/09 Q1015
EGKK 240220Z 23009KT 9999 SCT011 BKN016 11/09 Q1015 
EGKK 240150Z 23007KT 9999 BKN011 11/09 Q1015
EGKK 240120Z 22007KT 190V250 9999 BKN012 10/08 Q1015
EGKK 240050Z 21009KT 9999 FEW013 BKN020 10/08 Q1015 
EGKK 240020Z 22009KT 9999 FEW014 BKN021 10/08 Q1016 
EGKK 232350Z 22008KT 9999 BKN023 10/08 Q1016
EGKK 232320Z 24007KT CAVOK 10/08 Q1016  
EGKK 232250Z 23005KT CAVOK 10/08 Q1016  
EGKK 232150Z 22007KT 9999 -RA NSC 10/08 Q1016   
EGKK 232120Z 21009KT 170V240 CAVOK 11/07 Q1016  
EGKK 232050Z 22008KT CAVOK 11/07 Q1016  
EGKK 232020Z 21008KT CAVOK 11/07 Q1017  
EGKK 231950Z 22008KT CAVOK 11/07 Q1017